Time;durP1;ratioP1;P1;durP2;ratioP2;P2;SDS_P1;SDS_P2;PMS_P1;PMS_P2;Temp;Humidity;BMP_temperature;BMP_pressure;BME280_temperature;BME280_humidity;BME280_pressure;Samples;Min_cycle;Max_cycle;Signal;HPM_P1;HPM_P2
2022/08/14 00:02:14;;;;;;;4.65;2.70;;;;;;;21.65;54.32;101144.34;5072733;28;20052;-35
2022/08/14 00:04:39;;;;;;;5.50;2.75;;;;;;;21.68;54.08;101135.50;5073269;28;20025;-35
2022/08/14 00:07:05;;;;;;;7.35;2.60;;;;;;;21.53;54.02;101119.25;5072644;28;20052;-35
2022/08/14 00:09:31;;;;;;;5.50;2.55;;;;;;;21.48;54.55;101127.56;5072327;28;20448;-35
2022/08/14 00:11:57;;;;;;;3.13;2.47;;;;;;;21.40;54.63;101119.97;5072604;28;20178;-35
2022/08/14 00:14:22;;;;;;;4.03;2.78;;;;;;;21.44;54.44;101134.78;5072549;28;20060;-35
2022/08/14 00:16:49;;;;;;;5.72;3.10;;;;;;;21.32;54.96;101115.94;5072284;28;20044;-35
2022/08/14 00:19:15;;;;;;;6.55;2.80;;;;;;;21.54;54.91;101123.63;5072167;28;20039;-35
2022/08/14 00:21:40;;;;;;;4.20;2.67;;;;;;;21.38;54.79;101120.28;5072467;28;20132;-35
2022/08/14 00:24:05;;;;;;;5.03;2.83;;;;;;;21.43;54.42;101109.19;5072369;28;20035;-35
2022/08/14 00:26:31;;;;;;;5.15;3.00;;;;;;;21.37;53.80;101112.31;5073088;28;20031;-35
2022/08/14 00:28:56;;;;;;;6.70;2.88;;;;;;;21.31;54.67;101108.81;5072412;28;20028;-35
2022/08/14 00:31:22;;;;;;;3.78;3.03;;;;;;;21.30;55.39;101108.00;5072513;28;20025;-35
2022/08/14 00:33:48;;;;;;;5.55;2.95;;;;;;;21.29;55.02;101103.59;5072393;28;20025;-35
2022/08/14 00:36:13;;;;;;;3.92;2.75;;;;;;;21.32;55.42;101103.00;5072361;28;20036;-35
2022/08/14 00:38:39;;;;;;;3.78;3.15;;;;;;;21.22;55.44;101074.81;5072395;28;20029;-35
2022/08/14 00:41:06;;;;;;;4.07;3.10;;;;;;;21.29;54.49;101089.84;5072836;28;20524;-35
2022/08/14 00:43:35;;;;;;;6.97;2.70;;;;;;;21.22;55.14;101088.56;5072955;28;20032;-35
2022/08/14 00:46:03;;;;;;;4.20;2.92;;;;;;;21.18;55.51;101085.59;5072278;28;20032;-35
2022/08/14 00:48:29;;;;;;;5.75;3.10;;;;;;;21.21;55.17;101090.47;5072229;28;20048;-35
2022/08/14 00:50:54;;;;;;;6.40;3.20;;;;;;;21.18;55.89;101084.75;5072590;28;20105;-35
2022/08/14 00:53:22;;;;;;;6.50;3.63;;;;;;;21.14;55.89;101078.25;5072399;28;20095;-35
2022/08/14 00:55:48;;;;;;;3.63;2.95;;;;;;;21.11;56.48;101087.06;5071874;28;20484;-35
2022/08/14 00:58:29;;;;;;;5.07;2.85;;;;;;;21.11;55.81;101082.38;5072115;28;20036;-35
2022/08/14 01:00:55;;;;;;;7.45;3.63;;;;;;;21.01;56.26;101068.78;5072699;28;20107;-35
2022/08/14 01:03:21;;;;;;;3.47;2.92;;;;;;;21.15;56.05;101077.94;5072528;28;20166;-35
2022/08/14 01:05:49;;;;;;;4.78;3.40;;;;;;;21.05;56.30;101075.31;5072370;28;20064;-35
2022/08/14 01:08:23;;;;;;;4.60;3.65;;;;;;;20.91;56.84;101060.66;5071723;28;20052;-35
2022/08/14 01:10:51;;;;;;;4.15;3.67;;;;;;;20.96;56.24;101066.91;5072651;28;20041;-35
2022/08/14 01:13:31;;;;;;;9.65;3.65;;;;;;;21.06;55.81;101060.44;5071700;28;20432;-35
2022/08/14 01:15:59;;;;;;;3.38;3.08;;;;;;;20.93;56.39;101052.94;5072318;28;20039;-35
2022/08/14 01:21:14;;;;;;;5.32;3.60;;;;;;;20.92;56.68;101046.63;5075360;28;20137;-35
2022/08/14 01:23:44;;;;;;;7.85;4.32;;;;;;;20.82;57.07;101044.81;5075425;28;20024;-35
2022/08/14 01:26:11;;;;;;;4.90;3.50;;;;;;;20.86;56.70;101052.50;5075783;28;20024;-35
2022/08/14 01:28:37;;;;;;;5.38;3.72;;;;;;;20.86;56.85;101041.50;5075356;28;20028;-35
2022/08/14 01:31:07;;;;;;;5.22;3.50;;;;;;;20.85;56.69;101039.88;5075526;28;20032;-35
2022/08/14 01:33:37;;;;;;;4.78;3.70;;;;;;;20.74;55.77;101048.25;5075785;28;20090;-35
2022/08/14 01:36:03;;;;;;;6.82;3.80;;;;;;;20.85;56.69;101032.44;5075336;28;20029;-35
2022/08/14 01:38:33;;;;;;;6.05;3.90;;;;;;;20.79;56.98;101048.19;5075335;28;20329;-35
2022/08/14 01:41:07;;;;;;;6.18;3.72;;;;;;;20.73;56.52;101032.03;5074942;28;20032;-35
2022/08/14 01:43:47;;;;;;;6.30;3.67;;;;;;;20.78;56.90;101032.78;5074316;28;20444;-35
2022/08/14 01:46:14;;;;;;;6.68;3.97;;;;;;;20.71;56.50;101021.34;5075077;28;20040;-35
2022/08/14 01:48:43;;;;;;;4.95;3.80;;;;;;;20.68;56.45;101043.91;5074902;28;20025;-35
2022/08/14 01:51:10;;;;;;;4.75;3.30;;;;;;;20.69;56.50;101044.72;5075454;28;20032;-35
2022/08/14 01:53:38;;;;;;;5.38;3.72;;;;;;;20.66;56.27;101048.88;5074859;28;20032;-35
2022/08/14 01:56:05;;;;;;;5.22;3.55;;;;;;;20.60;56.76;101038.25;5075436;28;20046;-35
2022/08/14 01:58:30;;;;;;;5.18;3.80;;;;;;;20.61;57.26;101048.94;5074787;28;20457;-35
2022/08/14 02:00:57;;;;;;;7.03;4.00;;;;;;;20.62;57.42;101039.59;5074642;28;20035;-35
2022/08/14 02:03:25;;;;;;;4.45;3.40;;;;;;;20.58;57.05;101044.03;5075001;28;20024;-35
2022/08/14 02:05:51;;;;;;;4.47;3.67;;;;;;;20.54;56.89;101040.22;5075022;28;20029;-35
2022/08/14 02:08:16;;;;;;;4.38;3.50;;;;;;;20.47;57.54;101037.03;5074440;28;20033;-35
2022/08/14 02:10:42;;;;;;;7.20;3.72;;;;;;;20.42;57.39;101023.31;5075561;28;20099;-35
2022/08/14 02:13:10;;;;;;;8.75;3.70;;;;;;;20.39;58.26;101030.19;5074310;28;20028;-35
2022/08/14 02:15:36;;;;;;;7.15;3.65;;;;;;;20.33;57.93;101028.63;5075285;28;20097;-35
2022/08/14 02:18:03;;;;;;;5.03;3.67;;;;;;;20.28;57.54;101032.25;5074417;28;20033;-35
2022/08/14 02:20:32;;;;;;;5.85;3.83;;;;;;;20.22;57.98;101018.88;5074664;28;20040;-35
2022/08/14 02:22:59;;;;;;;7.13;4.10;;;;;;;20.15;59.11;101016.47;5074673;28;20028;-35
2022/08/14 02:25:24;;;;;;;4.00;3.60;;;;;;;20.25;58.85;101041.09;5074276;28;20028;-35
2022/08/14 02:27:49;;;;;;;3.83;3.50;;;;;;;20.25;59.12;101035.59;5074446;28;20048;-35
2022/08/14 02:30:15;;;;;;;3.83;3.50;;;;;;;20.21;59.10;101029.06;5074319;28;20476;-35
2022/08/14 02:32:40;;;;;;;5.63;3.80;;;;;;;20.16;59.17;101029.09;5074481;28;20107;-35
2022/08/14 02:35:12;;;;;;;5.78;3.92;;;;;;;20.13;58.89;101032.41;5074294;28;20033;-35
2022/08/14 02:37:39;;;;;;;6.07;4.40;;;;;;;20.10;59.52;101027.50;5074538;28;20032;-35
2022/08/14 02:40:05;;;;;;;4.50;3.40;;;;;;;20.11;59.67;101031.09;5074069;28;20035;-35
2022/08/14 02:42:31;;;;;;;6.18;4.03;;;;;;;20.19;59.15;101025.75;5073640;28;20030;-35
2022/08/14 02:44:57;;;;;;;4.20;3.70;;;;;;;20.04;59.76;101025.91;5074432;28;20074;-35
2022/08/14 02:47:22;;;;;;;6.82;4.07;;;;;;;19.94;59.37;101023.28;5073946;28;20179;-35
2022/08/14 02:49:48;;;;;;;5.68;4.03;;;;;;;20.02;59.41;101019.91;5073817;28;20448;-35
2022/08/14 02:52:14;;;;;;;5.60;4.18;;;;;;;19.80;59.65;101012.97;5073671;28;20440;-35
2022/08/14 02:54:39;;;;;;;12.25;5.05;;;;;;;19.89;59.39;101018.66;5074291;28;20025;-35
2022/08/14 02:57:05;;;;;;;10.63;4.18;;;;;;;19.83;59.29;101016.25;5074318;28;20056;-35
2022/08/14 02:59:32;;;;;;;5.68;4.45;;;;;;;19.76;59.92;101017.41;5073426;28;20055;-35
2022/08/14 03:01:58;;;;;;;4.80;4.30;;;;;;;19.71;60.79;101022.91;5073439;28;20067;-35
2022/08/14 03:04:27;;;;;;;5.65;4.13;;;;;;;19.66;59.85;101020.22;5074256;28;20116;-35
2022/08/14 03:06:53;;;;;;;5.25;4.20;;;;;;;19.62;60.78;101019.19;5074317;28;20032;-35
2022/08/14 03:09:18;;;;;;;5.35;4.28;;;;;;;19.60;61.09;101013.16;5073157;28;20044;-35
2022/08/14 03:11:43;;;;;;;6.75;4.55;;;;;;;19.52;61.98;101006.34;5073677;28;20034;-35
2022/08/14 03:14:10;;;;;;;9.73;5.55;;;;;;;19.50;61.26;100992.09;5073388;28;20024;-35
2022/08/14 03:16:37;;;;;;;5.40;4.60;;;;;;;19.56;61.99;101014.78;5073540;28;20028;-35
2022/08/14 03:19:05;;;;;;;6.80;4.90;;;;;;;19.37;62.58;100992.72;5073309;28;20028;-35
2022/08/14 03:21:32;;;;;;;6.85;5.32;;;;;;;19.40;62.65;101005.06;5073538;28;20415;-35
2022/08/14 03:24:08;;;;;;;5.65;4.80;;;;;;;19.39;62.82;101006.19;5073265;28;20024;-35
2022/08/14 03:26:35;;;;;;;8.07;5.13;;;;;;;19.43;62.77;101002.56;5073161;28;20043;-35
2022/08/14 03:29:01;;;;;;;6.50;5.38;;;;;;;19.29;63.75;101005.13;5073291;28;20380;-35
2022/08/14 03:31:28;;;;;;;8.25;5.38;;;;;;;19.25;63.86;101001.31;5073057;28;20032;-35
2022/08/14 03:33:54;;;;;;;6.50;4.93;;;;;;;19.23;63.93;101006.28;5072816;28;20059;-35
2022/08/14 03:36:21;;;;;;;5.53;5.03;;;;;;;19.17;64.23;100998.38;5073257;28;20029;-35
2022/08/14 03:38:50;;;;;;;5.80;4.95;;;;;;;19.08;64.84;100998.16;5072957;28;20025;-35
2022/08/14 03:41:24;;;;;;;8.55;5.40;;;;;;;19.11;64.55;100999.50;5072275;28;20062;-35
2022/08/14 03:43:55;;;;;;;6.50;5.28;;;;;;;18.97;64.75;100985.63;5073207;28;20028;-35
2022/08/14 03:46:22;;;;;;;7.68;4.97;;;;;;;19.03;64.60;100988.06;5073415;28;20024;-35
2022/08/14 03:48:48;;;;;;;5.47;4.97;;;;;;;18.98;65.02;100992.72;5072733;28;20021;-35
2022/08/14 03:51:14;;;;;;;6.05;5.35;;;;;;;19.01;64.76;100992.16;5072484;28;20032;-35
2022/08/14 03:53:45;;;;;;;6.75;4.88;;;;;;;18.85;65.77;100985.16;5073073;28;20102;-35
2022/08/14 03:56:13;;;;;;;9.98;5.85;;;;;;;18.80;65.73;100993.41;5072974;28;20104;-35
2022/08/14 03:58:41;;;;;;;5.95;4.97;;;;;;;18.74;66.36;100981.66;5072700;28;20037;-35
2022/08/14 04:01:08;;;;;;;5.85;5.20;;;;;;;18.64;67.12;100987.13;5072435;28;20151;-35
2022/08/14 04:03:34;;;;;;;8.93;5.63;;;;;;;18.58;66.98;100983.59;5073317;28;20063;-35
2022/08/14 04:05:59;;;;;;;9.65;5.15;;;;;;;18.63;67.00;100993.72;5073441;28;20443;-35
2022/08/14 04:08:25;;;;;;;6.07;5.40;;;;;;;18.54;67.08;100982.50;5070964;28;20072;-35
2022/08/14 04:10:50;;;;;;;7.35;4.97;;;;;;;18.52;67.73;100992.94;5073250;28;20080;-35
2022/08/14 04:13:16;;;;;;;;;;;;;;;18.77;63.99;100995.59;5073055;28;20483;-34
2022/08/14 04:15:45;;;;;;;6.22;5.45;;;;;;;18.35;67.12;100979.59;5072804;28;19909;-34
2022/08/14 04:18:11;;;;;;;6.32;5.18;;;;;;;18.43;67.60;100994.63;5072203;28;20476;-34
2022/08/14 04:20:39;;;;;;;6.10;5.50;;;;;;;18.40;68.23;100993.28;5073328;28;20028;-34
2022/08/14 04:23:05;;;;;;;7.57;5.82;;;;;;;18.28;68.56;100982.63;5072414;28;20101;-34
2022/08/14 04:25:32;;;;;;;6.85;5.47;;;;;;;18.45;68.08;100981.50;5072927;28;20092;-34
2022/08/14 04:27:58;;;;;;;6.30;5.70;;;;;;;18.28;68.51;100976.34;5072437;28;20071;-34
2022/08/14 04:30:27;;;;;;;6.50;5.90;;;;;;;18.28;68.47;100974.41;5072597;28;20115;-34
2022/08/14 04:32:53;;;;;;;7.15;6.13;;;;;;;18.33;68.35;100978.22;5072127;28;20029;-34
2022/08/14 04:35:18;;;;;;;8.60;6.45;;;;;;;18.30;68.07;100979.63;5073091;28;20039;-34
2022/08/14 04:45:55;;;;;;;7.35;6.05;;;;;;;18.23;68.89;100965.41;5072329;28;20136;-34
2022/08/14 04:48:21;;;;;;;6.80;6.07;;;;;;;18.27;69.29;100964.56;5072253;28;20052;-34
2022/08/14 04:50:49;;;;;;;7.90;6.40;;;;;;;18.28;69.23;100951.69;5072876;28;20103;-34
2022/08/14 04:53:18;;;;;;;6.78;6.13;;;;;;;18.20;69.24;100953.13;5075083;28;20085;-34
2022/08/14 04:55:47;;;;;;;11.13;5.82;;;;;;;18.14;68.91;100954.22;5076040;28;20028;-34
2022/08/14 04:58:17;;;;;;;8.10;6.07;;;;;;;18.24;69.05;100961.56;5075677;28;20044;-34
2022/08/14 05:00:44;;;;;;;7.18;6.47;;;;;;;18.30;68.89;100957.72;5076700;28;20060;-34
2022/08/14 05:03:10;;;;;;;6.85;6.15;;;;;;;18.39;69.68;100956.03;5075882;28;20035;-34
2022/08/14 05:05:35;;;;;;;7.85;6.85;;;;;;;18.28;69.76;100940.75;5076075;28;20384;-34
2022/08/14 05:08:11;;;;;;;;;;;;;;;18.57;66.54;100951.84;5076207;28;20103;-35
2022/08/14 05:10:42;;;;;;;8.57;6.68;;;;;;;18.42;69.33;100943.72;5075546;28;20369;-35
2022/08/14 05:13:09;;;;;;;9.05;6.18;;;;;;;18.36;69.25;100928.41;5076257;28;20074;-35
2022/08/14 05:15:38;;;;;;;7.60;6.90;;;;;;;18.50;69.08;100952.16;5075884;28;20416;-35
2022/08/14 05:18:12;;;;;;;8.27;7.47;;;;;;;18.62;69.02;100948.25;5075595;28;20028;-35
2022/08/14 05:20:47;;;;;;;9.05;7.50;;;;;;;18.63;68.77;100949.91;5074749;28;20047;-35
2022/08/14 05:23:14;;;;;;;8.98;7.95;;;;;;;18.65;69.13;100945.78;5075610;28;20373;-35
2022/08/14 05:25:41;;;;;;;8.15;7.45;;;;;;;18.77;68.50;100945.47;5075961;28;20034;-35
2022/08/14 05:28:10;;;;;;;13.07;7.60;;;;;;;18.88;68.50;100947.03;5075648;28;20028;-35
2022/08/14 05:30:37;;;;;;;10.35;7.65;;;;;;;18.92;68.01;100942.63;5075735;28;20514;-35
2022/08/14 05:33:04;;;;;;;7.85;7.15;;;;;;;18.92;68.53;100936.31;5075467;28;20036;-35
2022/08/14 05:35:31;;;;;;;9.30;7.13;;;;;;;18.92;67.83;100939.06;5075989;28;20032;-35
2022/08/14 05:37:58;;;;;;;8.38;7.63;;;;;;;18.99;68.28;100928.63;5075428;28;20028;-35
2022/08/14 05:40:23;;;;;;;9.48;7.50;;;;;;;19.10;68.33;100940.31;5075505;28;20130;-35
2022/08/14 05:42:48;;;;;;;10.27;7.97;;;;;;;19.20;67.83;100935.56;5075871;28;20119;-35
2022/08/14 05:45:16;;;;;;;11.30;8.65;;;;;;;19.28;67.22;100940.44;5075570;28;20024;-35
2022/08/14 05:47:41;;;;;;;8.98;8.07;;;;;;;19.41;67.10;100943.63;5075358;28;20048;-35
2022/08/14 05:50:10;;;;;;;9.48;8.52;;;;;;;19.42;66.74;100937.03;5074808;28;20028;-35
2022/08/14 05:52:35;;;;;;;10.10;8.63;;;;;;;19.54;66.21;100937.47;5074769;28;20492;-35
2022/08/14 05:55:02;;;;;;;8.50;7.63;;;;;;;19.56;65.91;100927.84;5075571;28;20108;-35
2022/08/14 05:57:28;;;;;;;9.45;8.00;;;;;;;19.71;66.16;100937.06;5075649;28;20024;-35
2022/08/14 05:59:53;;;;;;;9.82;8.18;;;;;;;19.81;65.40;100936.94;5075622;28;20090;-35
2022/08/14 06:02:18;;;;;;;11.63;8.23;;;;;;;19.91;65.43;100928.63;5075278;28;20082;-35
2022/08/14 06:04:47;;;;;;;9.05;8.05;;;;;;;20.04;65.62;100925.16;5074352;28;20036;-35
2022/08/14 06:07:13;;;;;;;12.45;8.30;;;;;;;20.19;65.13;100931.59;5074847;28;20020;-35
2022/08/14 06:09:38;;;;;;;9.75;8.77;;;;;;;20.21;65.55;100929.38;5074916;28;20052;-35
2022/08/14 06:12:04;;;;;;;8.38;7.68;;;;;;;20.38;64.70;100921.47;5074539;28;20074;-35
2022/08/14 06:14:30;;;;;;;8.60;7.80;;;;;;;20.53;63.93;100926.78;5075422;28;20116;-35
2022/08/14 06:16:55;;;;;;;9.05;8.18;;;;;;;20.64;63.40;100932.13;5074786;28;20423;-35
2022/08/14 06:19:20;;;;;;;9.63;8.63;;;;;;;20.73;63.65;100935.84;5074148;28;20036;-35
2022/08/14 06:21:46;;;;;;;8.68;7.47;;;;;;;20.83;62.84;100936.53;5074718;28;20039;-35
2022/08/14 06:24:11;;;;;;;8.52;7.30;;;;;;;20.87;62.79;100933.19;5074402;28;20084;-35
2022/08/14 06:26:36;;;;;;;8.65;7.75;;;;;;;20.93;62.37;100923.75;5074269;28;20029;-35
2022/08/14 06:29:02;;;;;;;8.73;7.82;;;;;;;21.03;62.33;100929.91;5074779;28;20025;-35
2022/08/14 06:31:27;;;;;;;11.68;7.90;;;;;;;21.07;61.85;100925.44;5074518;28;20024;-35
2022/08/14 06:33:53;;;;;;;8.43;7.70;;;;;;;21.14;62.54;100930.56;5074095;28;20055;-34
2022/08/14 06:36:18;;;;;;;9.88;8.18;;;;;;;21.15;61.57;100914.88;5074803;28;20024;-34
2022/08/14 06:38:44;;;;;;;8.82;8.02;;;;;;;21.17;61.89;100907.94;5074106;28;20024;-35
2022/08/14 06:41:09;;;;;;;10.75;8.27;;;;;;;21.29;61.99;100915.75;5074418;28;20032;-34
2022/08/14 06:43:34;;;;;;;8.85;7.07;;;;;;;21.43;61.03;100915.81;5072662;28;20468;-34
2022/08/14 06:46:00;;;;;;;10.18;7.40;;;;;;;21.49;61.52;100914.59;5107496;28;20033;-34
2022/08/14 06:48:26;;;;;;;7.80;7.00;;;;;;;21.61;60.85;100906.66;5073919;28;20106;-34
2022/08/14 06:50:53;;;;;;;8.63;7.72;;;;;;;21.63;60.76;100901.69;5074587;28;20445;-34
2022/08/14 06:53:18;;;;;;;8.07;7.38;;;;;;;21.73;60.28;100912.50;5073724;28;20357;-34
2022/08/14 06:55:45;;;;;;;7.82;7.03;;;;;;;21.76;60.22;100906.38;5073502;28;20111;-34
2022/08/14 06:58:13;;;;;;;8.43;7.45;;;;;;;21.83;61.05;100908.75;5073770;28;20514;-34
2022/08/14 07:00:39;;;;;;;8.60;7.80;;;;;;;21.90;60.68;100913.84;5073903;28;20036;-34
2022/08/14 07:05:49;;;;;;;8.80;7.07;;;;;;;22.05;60.48;100900.56;5073294;28;20074;-34
2022/08/14 07:08:20;;;;;;;8.13;7.32;;;;;;;22.06;59.62;100887.66;5073623;28;20028;-34
2022/08/14 07:10:48;;;;;;;8.45;7.53;;;;;;;22.22;59.43;100901.94;5073914;28;20128;-35
2022/08/14 07:13:14;;;;;;;8.25;7.50;;;;;;;22.29;59.45;100903.13;5073565;28;20028;-35
2022/08/14 07:15:41;;;;;;;9.52;7.93;;;;;;;22.30;58.92;100884.66;5071937;28;20066;-35
2022/08/14 07:18:07;;;;;;;9.68;7.07;;;;;;;22.40;59.61;100895.50;5073644;28;20032;-35
2022/08/14 07:20:33;;;;;;;7.97;7.18;;;;;;;22.49;58.97;100898.31;5073513;28;20103;-35
2022/08/14 07:23:00;;;;;;;7.80;7.10;;;;;;;22.53;59.07;100899.31;5073911;28;20059;-35
2022/08/14 07:25:26;;;;;;;9.00;7.90;;;;;;;22.57;59.02;100892.06;5073480;28;20465;-35
2022/08/14 07:27:52;;;;;;;8.45;7.43;;;;;;;22.62;58.65;100892.75;5073144;28;20104;-35
2022/08/14 07:30:18;;;;;;;8.13;7.32;;;;;;;22.78;58.19;100893.22;5073164;28;20448;-35
2022/08/14 07:32:43;;;;;;;9.43;6.68;;;;;;;22.81;58.52;100895.34;5073003;28;20414;-35
2022/08/14 07:35:08;;;;;;;7.65;6.95;;;;;;;22.76;58.74;100876.19;5072809;28;20089;-35
2022/08/14 07:37:34;;;;;;;7.88;7.05;;;;;;;22.99;57.96;100892.78;5073032;28;20392;-35
2022/08/14 07:40:01;;;;;;;11.07;6.75;;;;;;;23.03;58.10;100891.81;5073139;28;20033;-35
2022/08/14 07:42:27;;;;;;;8.02;7.22;;;;;;;23.19;57.25;100892.28;5072737;28;20032;-35
2022/08/14 07:44:52;;;;;;;9.65;7.93;;;;;;;23.22;57.29;100888.06;5073618;28;20111;-35
2022/08/14 07:47:18;;;;;;;9.48;7.13;;;;;;;23.33;57.08;100893.00;5073062;28;20051;-35
2022/08/14 07:49:58;;;;;;;9.60;7.90;;;;;;;23.36;56.88;100884.09;5072541;28;20469;-35
2022/08/14 07:52:23;;;;;;;10.82;7.60;;;;;;;23.41;56.77;100874.84;5073015;28;20043;-35
2022/08/14 07:54:49;;;;;;;9.40;8.40;;;;;;;23.50;56.34;100883.19;5073339;28;20032;-35
2022/08/14 07:57:16;;;;;;;8.38;7.22;;;;;;;23.58;56.82;100879.66;5072324;28;20056;-35
2022/08/14 07:59:42;;;;;;;10.27;7.20;;;;;;;23.63;56.99;100876.75;5072683;28;20024;-35
2022/08/14 08:02:10;;;;;;;10.25;7.45;;;;;;;23.75;56.49;100885.28;5073398;28;20094;-35
2022/08/14 08:04:42;;;;;;;8.77;7.38;;;;;;;23.92;55.80;100886.50;5072893;28;20036;-35
2022/08/14 08:07:08;;;;;;;7.68;6.97;;;;;;;24.03;55.33;100890.59;5071860;28;20037;-35
2022/08/14 08:09:35;;;;;;;7.38;6.65;;;;;;;24.09;55.00;100892.88;5072796;28;20055;-35
2022/08/14 08:12:04;;;;;;;8.35;6.70;;;;;;;24.14;55.18;100889.16;5072740;28;20115;-35
2022/08/14 08:14:32;;;;;;;7.88;6.60;;;;;;;24.29;54.25;100894.22;5072529;28;20116;-35
2022/08/14 08:16:59;;;;;;;8.38;7.15;;;;;;;24.32;54.77;100890.81;5072308;28;20112;-35
2022/08/14 08:19:24;;;;;;;7.43;6.50;;;;;;;24.44;53.73;100883.88;5072533;28;20098;-35
2022/08/14 08:21:50;;;;;;;6.68;6.00;;;;;;;24.57;53.47;100888.44;5072365;28;20036;-35
2022/08/14 08:24:16;;;;;;;9.35;6.30;;;;;;;24.61;53.01;100879.19;5072975;28;20107;-35
2022/08/14 08:26:41;;;;;;;7.68;6.28;;;;;;;24.67;53.02;100879.81;5074563;28;20052;-35
2022/08/14 08:29:08;;;;;;;7.30;6.70;;;;;;;24.75;53.06;100870.72;5076805;28;20052;-35
2022/08/14 08:31:45;;;;;;;7.38;6.00;;;;;;;24.89;53.17;100879.66;5076909;28;20033;-35
2022/08/14 08:34:11;;;;;;;7.75;6.32;;;;;;;25.01;52.41;100869.88;5076857;28;20032;-36
2022/08/14 08:36:40;;;;;;;8.07;5.88;;;;;;;25.09;53.63;100855.25;5076797;28;20036;-35
2022/08/14 08:39:06;;;;;;;6.90;6.20;;;;;;;25.14;51.64;100863.41;5076521;28;20059;-35
2022/08/14 08:41:58;;;;;;;6.82;5.25;;;;;;;25.32;52.50;100859.41;5076447;28;20183;-35
2022/08/14 08:44:28;;;;;;;5.65;4.93;;;;;;;25.45;53.48;100862.31;5054268;28;20037;-35
2022/08/14 08:46:58;;;;;;;9.70;5.57;;;;;;;25.55;52.16;100868.31;5054146;28;20568;-35
2022/08/14 08:49:34;;;;;;;5.93;5.28;;;;;;;25.72;51.37;100872.97;5053824;28;20044;-35
2022/08/14 08:52:03;;;;;;;8.95;6.35;;;;;;;25.66;50.50;100869.56;5054442;28;20032;-35
2022/08/14 08:54:28;;;;;;;6.47;5.85;;;;;;;25.63;51.07;100852.81;5053620;28;20128;-35
2022/08/14 08:56:53;;;;;;;13.45;5.88;;;;;;;25.71;51.38;100859.44;5053770;28;20033;-35
2022/08/14 08:59:29;;;;;;;6.15;5.55;;;;;;;25.81;50.42;100861.88;5037819;28;20116;-35
2022/08/14 09:01:57;;;;;;;6.50;5.90;;;;;;;25.80;50.18;100863.81;5034143;28;20474;-35
2022/08/14 09:04:24;;;;;;;6.40;5.30;;;;;;;25.93;50.33;100859.22;5038255;28;20037;-35
2022/08/14 09:06:51;;;;;;;7.50;5.55;;;;;;;26.10;49.52;100858.28;5034446;28;20033;-35
2022/08/14 09:09:28;;;;;;;7.55;6.05;;;;;;;26.27;49.09;100863.72;5039921;28;20033;-35
2022/08/14 09:11:56;;;;;;;8.15;6.22;;;;;;;26.44;48.37;100866.41;5047307;28;20037;-35
2022/08/14 09:14:23;;;;;;;6.93;4.97;;;;;;;26.57;47.30;100864.50;5042325;28;20037;-35
2022/08/14 09:16:50;;;;;;;6.18;4.40;;;;;;;26.68;47.55;100859.38;5053103;28;20033;-36
2022/08/14 09:19:16;;;;;;;6.30;5.20;;;;;;;26.65;46.58;100848.97;5053227;28;20445;-36
2022/08/14 09:21:42;;;;;;;7.82;5.93;;;;;;;26.76;47.46;100839.06;5055126;28;20102;-36
2022/08/14 09:24:08;;;;;;;5.72;4.82;;;;;;;26.82;46.52;100837.69;5055810;28;20441;-36
2022/08/14 09:26:35;;;;;;;5.80;4.43;;;;;;;27.02;46.63;100835.22;5076388;28;20090;-36
2022/08/14 09:29:00;;;;;;;4.45;3.97;;;;;;;27.18;46.00;100839.00;5086705;28;20414;-36
2022/08/14 09:31:28;;;;;;;6.63;4.05;;;;;;;27.29;45.47;100836.59;5095864;28;20024;-36
2022/08/14 09:34:21;;;;;;;4.03;3.70;;;;;;;27.57;45.57;100833.97;5095578;28;20032;-36
2022/08/14 09:37:20;;;;;;;5.55;4.15;;;;;;;27.76;45.43;100825.91;5093804;28;20055;-36
2022/08/14 09:40:23;;;;;;;4.47;4.03;;;;;;;27.63;45.07;100827.03;5078726;28;20396;-36
2022/08/14 09:43:16;;;;;;;5.18;4.60;;;;;;;27.65;45.08;100814.41;5078152;28;20032;-36
2022/08/14 09:45:46;;;;;;;5.47;4.72;;;;;;;27.85;44.96;100820.22;5088769;28;20103;-36
2022/08/14 09:48:17;;;;;;;5.65;5.15;;;;;;;27.92;45.87;100812.94;5095780;28;20031;-36
2022/08/14 09:50:48;;;;;;;8.38;4.80;;;;;;;28.01;45.52;100815.56;5095482;28;20384;-36
2022/08/14 09:53:17;;;;;;;5.75;5.00;;;;;;;28.09;44.99;100811.03;5095305;28;20039;-36
2022/08/14 09:55:43;;;;;;;5.22;4.35;;;;;;;28.14;45.10;100786.59;5093511;28;20051;-36
2022/08/14 09:58:17;;;;;;;4.65;4.20;;;;;;;28.47;43.82;100803.09;5081508;28;20037;-36
2022/08/14 10:00:48;;;;;;;5.22;4.35;;;;;;;28.12;42.55;100804.81;5075078;28;20028;-36
2022/08/14 10:03:26;;;;;;;9.93;4.30;;;;;;;28.30;43.24;100788.63;5075289;28;20052;-36
2022/08/14 10:06:13;;;;;;;8.27;4.30;;;;;;;28.51;43.50;100796.84;5074904;28;20067;-36
2022/08/14 10:08:47;;;;;;;10.90;4.32;;;;;;;28.43;42.48;100782.72;5075523;28;20032;-36
2022/08/14 10:11:21;;;;;;;7.15;4.00;;;;;;;28.60;42.93;100780.78;5074710;28;20086;-36
2022/08/14 10:13:52;;;;;;;4.93;3.85;;;;;;;28.79;41.29;100783.69;5074559;28;20468;-36
2022/08/14 10:16:28;;;;;;;5.75;4.20;;;;;;;28.81;42.44;100764.69;5074755;28;20361;-36
2022/08/14 10:19:06;;;;;;;8.10;3.92;;;;;;;28.97;43.05;100773.91;5074924;28;20052;-36
2022/08/14 10:21:31;;;;;;;4.93;4.47;;;;;;;28.93;42.13;100767.38;5073923;28;20029;-36
2022/08/14 10:23:57;;;;;;;4.75;3.63;;;;;;;29.18;42.88;100767.25;5074954;28;20017;-36
2022/08/14 10:26:24;;;;;;;4.50;4.10;;;;;;;29.27;41.60;100759.53;5075178;28;20070;-36
2022/08/14 10:28:51;;;;;;;6.03;4.40;;;;;;;29.32;40.66;100750.09;5074370;28;20032;-36
2022/08/14 10:31:22;;;;;;;4.82;3.50;;;;;;;29.57;40.83;100751.53;5107070;28;20028;-36
2022/08/14 10:34:08;;;;;;;5.95;3.63;;;;;;;29.57;40.58;100761.88;5073914;28;20482;-36
2022/08/14 10:36:40;;;;;;;5.80;3.90;;;;;;;29.59;40.17;100749.22;5074990;28;20410;-36
2022/08/14 10:39:24;;;;;;;5.97;3.40;;;;;;;29.66;40.49;100743.00;5073924;28;20310;-36
2022/08/14 10:42:03;;;;;;;6.72;3.45;;;;;;;29.71;39.94;100748.28;5074447;28;20039;-36
2022/08/14 10:44:34;;;;;;;8.57;3.35;;;;;;;29.76;39.97;100736.84;5074396;28;20028;-36
2022/08/14 10:47:02;;;;;;;8.25;3.45;;;;;;;29.82;38.95;100735.41;5074799;28;20052;-36
2022/08/14 10:49:27;;;;;;;6.43;3.75;;;;;;;29.91;37.65;100736.00;5072870;28;20392;-36
2022/08/14 10:52:03;;;;;;;6.95;3.25;;;;;;;29.90;38.23;100733.56;5074195;28;20033;-36
2022/08/14 10:54:49;;;;;;;6.13;3.50;;;;;;;30.04;38.21;100725.53;5074581;28;20103;-36
2022/08/14 10:57:20;;;;;;;5.28;3.22;;;;;;;30.09;38.65;100730.00;5073639;28;20107;-36
2022/08/14 10:59:54;;;;;;;7.32;3.33;;;;;;;30.26;38.34;100726.81;5073695;28;20341;-36
2022/08/14 11:02:28;;;;;;;4.50;3.00;;;;;;;30.48;38.52;100733.63;5073996;28;20028;-36
2022/08/14 11:05:04;;;;;;;4.75;3.30;;;;;;;30.74;37.82;100718.97;5073624;28;20024;-36
2022/08/14 11:07:30;;;;;;;5.35;3.40;;;;;;;30.64;36.02;100713.97;5074412;28;20085;-36
2022/08/14 11:10:00;;;;;;;4.00;2.83;;;;;;;30.70;36.17;100718.09;5073388;28;20057;-36
2022/08/14 11:12:46;;;;;;;4.95;3.13;;;;;;;30.65;36.05;100715.59;5074400;28;20024;-36
2022/08/14 11:15:15;;;;;;;5.60;3.05;;;;;;;30.86;35.20;100712.44;5073483;28;20032;-36
2022/08/14 11:17:40;;;;;;;3.15;2.40;;;;;;;30.87;34.00;100717.63;5073307;28;20103;-36
2022/08/14 11:20:08;;;;;;;4.60;2.53;;;;;;;31.13;34.97;100713.28;5073794;28;20056;-36
2022/08/14 11:22:38;;;;;;;4.15;3.00;;;;;;;31.17;33.16;100711.34;5073836;28;20119;-36
2022/08/14 11:25:05;;;;;;;2.85;2.58;;;;;;;31.22;34.41;100708.22;5073700;28;20059;-36
2022/08/14 11:27:33;;;;;;;4.97;3.10;;;;;;;31.02;34.83;100710.31;5073638;28;20368;-36
2022/08/14 11:30:02;;;;;;;4.85;2.80;;;;;;;31.06;34.72;100718.75;5073809;28;20435;-36
2022/08/14 11:32:29;;;;;;;5.25;3.25;;;;;;;31.01;34.82;100714.28;5073880;28;20031;-36
2022/08/14 11:34:56;;;;;;;3.70;2.78;;;;;;;31.12;34.69;100703.28;5073128;28;20025;-36
2022/08/14 11:37:21;;;;;;;4.90;2.78;;;;;;;31.02;34.78;100702.72;5073112;28;20036;-36
2022/08/14 11:39:47;;;;;;;6.63;2.75;;;;;;;31.18;34.32;100705.38;5072690;28;20468;-36
2022/08/14 11:42:24;;;;;;;5.20;2.60;;;;;;;31.18;34.24;100710.16;5072962;28;20115;-36
2022/08/14 11:45:03;;;;;;;5.28;2.50;;;;;;;31.34;33.44;100696.91;5072743;28;20349;-36